sensor_id;sensor_type;location;lat;lon;timestamp;temperature;humidity
29777;DHT22;16677;52.224;7.484;2024-03-22T00:00:32;10.40;1.00
29777;DHT22;16677;52.224;7.484;2024-03-22T00:02:58;10.40;1.00
29777;DHT22;16677;52.224;7.484;2024-03-22T00:05:23;10.50;1.00
29777;DHT22;16677;52.224;7.484;2024-03-22T00:07:49;10.50;1.00
29777;DHT22;16677;52.224;7.484;2024-03-22T00:10:15;10.50;1.00
29777;DHT22;16677;52.224;7.484;2024-03-22T00:12:41;10.50;1.00
29777;DHT22;16677;52.224;7.484;2024-03-22T00:15:07;10.50;1.00
29777;DHT22;16677;52.224;7.484;2024-03-22T00:17:33;10.50;1.00
29777;DHT22;16677;52.224;7.484;2024-03-22T00:20:02;10.50;1.00
29777;DHT22;16677;52.224;7.484;2024-03-22T00:22:28;10.50;1.00
29777;DHT22;16677;52.224;7.484;2024-03-22T00:24:54;10.50;1.00
29777;DHT22;16677;52.224;7.484;2024-03-22T00:27:20;10.50;1.00
29777;DHT22;16677;52.224;7.484;2024-03-22T00:29:46;10.50;1.00
29777;DHT22;16677;52.224;7.484;2024-03-22T00:32:11;10.50;38.70
29777;DHT22;16677;52.224;7.484;2024-03-22T00:34:37;10.60;42.40
29777;DHT22;16677;52.224;7.484;2024-03-22T00:37:03;10.60;1.00
29777;DHT22;16677;52.224;7.484;2024-03-22T00:39:29;10.60;1.00
29777;DHT22;16677;52.224;7.484;2024-03-22T00:41:55;10.50;1.00
29777;DHT22;16677;52.224;7.484;2024-03-22T00:44:20;10.60;1.00
29777;DHT22;16677;52.224;7.484;2024-03-22T00:46:46;10.60;1.00
29777;DHT22;16677;52.224;7.484;2024-03-22T00:49:12;10.60;31.00
29777;DHT22;16677;52.224;7.484;2024-03-22T00:51:38;10.60;99.90
29777;DHT22;16677;52.224;7.484;2024-03-22T00:54:04;10.60;78.10
29777;DHT22;16677;52.224;7.484;2024-03-22T00:56:30;10.60;99.90
29777;DHT22;16677;52.224;7.484;2024-03-22T00:58:56;10.60;96.90
29777;DHT22;16677;52.224;7.484;2024-03-22T01:01:22;10.60;99.90
29777;DHT22;16677;52.224;7.484;2024-03-22T01:03:47;10.60;99.90
29777;DHT22;16677;52.224;7.484;2024-03-22T01:06:13;10.60;99.90
29777;DHT22;16677;52.224;7.484;2024-03-22T01:08:39;10.60;99.90
29777;DHT22;16677;52.224;7.484;2024-03-22T01:11:05;10.60;99.90
29777;DHT22;16677;52.224;7.484;2024-03-22T01:13:31;10.70;99.90
29777;DHT22;16677;52.224;7.484;2024-03-22T01:15:56;10.70;99.90
29777;DHT22;16677;52.224;7.484;2024-03-22T01:18:22;10.70;99.90
29777;DHT22;16677;52.224;7.484;2024-03-22T01:20:48;10.70;99.90
29777;DHT22;16677;52.224;7.484;2024-03-22T01:23:14;10.70;99.90
29777;DHT22;16677;52.224;7.484;2024-03-22T01:25:40;10.70;99.90
29777;DHT22;16677;52.224;7.484;2024-03-22T01:28:06;10.70;99.90
29777;DHT22;16677;52.224;7.484;2024-03-22T01:30:32;10.70;99.90
29777;DHT22;16677;52.224;7.484;2024-03-22T01:32:59;10.70;99.90
29777;DHT22;16677;52.224;7.484;2024-03-22T01:35:25;10.70;99.90
29777;DHT22;16677;52.224;7.484;2024-03-22T01:37:51;10.70;99.90
29777;DHT22;16677;52.224;7.484;2024-03-22T01:40:17;10.70;1.00
29777;DHT22;16677;52.224;7.484;2024-03-22T01:42:43;10.70;1.00
29777;DHT22;16677;52.224;7.484;2024-03-22T01:45:08;10.70;1.00
29777;DHT22;16677;52.224;7.484;2024-03-22T01:47:34;10.80;1.00
29777;DHT22;16677;52.224;7.484;2024-03-22T01:50:00;10.80;1.00
29777;DHT22;16677;52.224;7.484;2024-03-22T01:52:27;10.80;1.00
29777;DHT22;16677;52.224;7.484;2024-03-22T01:54:52;10.80;1.00
29777;DHT22;16677;52.224;7.484;2024-03-22T01:57:18;10.80;1.00
29777;DHT22;16677;52.224;7.484;2024-03-22T01:59:44;10.80;66.10
29777;DHT22;16677;52.224;7.484;2024-03-22T02:02:11;10.80;99.90
29777;DHT22;16677;52.224;7.484;2024-03-22T02:04:38;10.90;99.90
29777;DHT22;16677;52.224;7.484;2024-03-22T02:07:04;10.90;99.90
29777;DHT22;16677;52.224;7.484;2024-03-22T02:09:30;10.80;99.90
29777;DHT22;16677;52.224;7.484;2024-03-22T02:11:56;10.80;99.90
29777;DHT22;16677;52.224;7.484;2024-03-22T02:14:21;10.80;99.90
29777;DHT22;16677;52.224;7.484;2024-03-22T02:16:47;10.80;1.00
29777;DHT22;16677;52.224;7.484;2024-03-22T02:19:13;10.80;99.90
29777;DHT22;16677;52.224;7.484;2024-03-22T02:21:39;10.80;1.00
29777;DHT22;16677;52.224;7.484;2024-03-22T02:24:05;10.80;1.00
29777;DHT22;16677;52.224;7.484;2024-03-22T02:26:31;10.90;1.00
29777;DHT22;16677;52.224;7.484;2024-03-22T02:28:57;10.80;1.00
29777;DHT22;16677;52.224;7.484;2024-03-22T02:31:22;10.90;1.00
29777;DHT22;16677;52.224;7.484;2024-03-22T02:33:49;10.90;1.00
29777;DHT22;16677;52.224;7.484;2024-03-22T02:36:15;10.90;1.00
29777;DHT22;16677;52.224;7.484;2024-03-22T02:38:41;10.90;1.00
29777;DHT22;16677;52.224;7.484;2024-03-22T02:41:07;10.90;1.00
29777;DHT22;16677;52.224;7.484;2024-03-22T02:43:32;10.90;1.00
29777;DHT22;16677;52.224;7.484;2024-03-22T02:45:58;11.00;1.00
29777;DHT22;16677;52.224;7.484;2024-03-22T02:48:24;11.00;1.00
29777;DHT22;16677;52.224;7.484;2024-03-22T02:50:54;11.00;1.00
29777;DHT22;16677;52.224;7.484;2024-03-22T02:53:20;11.00;1.00
29777;DHT22;16677;52.224;7.484;2024-03-22T02:55:46;11.10;1.00
29777;DHT22;16677;52.224;7.484;2024-03-22T02:58:12;11.00;1.00
29777;DHT22;16677;52.224;7.484;2024-03-22T03:00:38;11.00;1.00
29777;DHT22;16677;52.224;7.484;2024-03-22T03:03:04;11.00;1.00
29777;DHT22;16677;52.224;7.484;2024-03-22T03:05:30;11.00;1.00
29777;DHT22;16677;52.224;7.484;2024-03-22T03:07:56;11.00;1.00
29777;DHT22;16677;52.224;7.484;2024-03-22T03:10:22;11.00;12.30
29777;DHT22;16677;52.224;7.484;2024-03-22T03:12:48;11.00;1.00
29777;DHT22;16677;52.224;7.484;2024-03-22T03:15:14;11.10;1.00
29777;DHT22;16677;52.224;7.484;2024-03-22T03:17:39;11.10;1.00
29777;DHT22;16677;52.224;7.484;2024-03-22T03:20:05;11.10;1.00
29777;DHT22;16677;52.224;7.484;2024-03-22T03:22:33;11.10;1.00
29777;DHT22;16677;52.224;7.484;2024-03-22T03:25:00;11.20;1.00
29777;DHT22;16677;52.224;7.484;2024-03-22T03:27:26;11.20;1.00
29777;DHT22;16677;52.224;7.484;2024-03-22T03:29:52;11.20;1.00
29777;DHT22;16677;52.224;7.484;2024-03-22T03:32:18;11.10;1.00
29777;DHT22;16677;52.224;7.484;2024-03-22T03:34:44;11.20;1.00
29777;DHT22;16677;52.224;7.484;2024-03-22T03:37:09;11.20;1.00
29777;DHT22;16677;52.224;7.484;2024-03-22T03:39:35;11.30;1.00
29777;DHT22;16677;52.224;7.484;2024-03-22T03:42:01;11.20;1.00
29777;DHT22;16677;52.224;7.484;2024-03-22T03:44:27;11.20;99.90
29777;DHT22;16677;52.224;7.484;2024-03-22T03:46:53;11.30;99.90
29777;DHT22;16677;52.224;7.484;2024-03-22T03:49:19;11.30;99.90
29777;DHT22;16677;52.224;7.484;2024-03-22T03:51:44;11.30;1.00
29777;DHT22;16677;52.224;7.484;2024-03-22T03:54:10;11.30;99.90
29777;DHT22;16677;52.224;7.484;2024-03-22T03:56:36;11.30;99.90
29777;DHT22;16677;52.224;7.484;2024-03-22T03:59:02;11.30;99.90
29777;DHT22;16677;52.224;7.484;2024-03-22T04:01:28;11.30;99.90
29777;DHT22;16677;52.224;7.484;2024-03-22T04:03:53;11.30;99.90
29777;DHT22;16677;52.224;7.484;2024-03-22T04:06:19;11.40;99.90
29777;DHT22;16677;52.224;7.484;2024-03-22T04:08:45;11.40;99.90
29777;DHT22;16677;52.224;7.484;2024-03-22T04:11:11;11.30;99.90
29777;DHT22;16677;52.224;7.484;2024-03-22T04:13:37;11.40;99.90
29777;DHT22;16677;52.224;7.484;2024-03-22T04:16:03;11.40;1.00
29777;DHT22;16677;52.224;7.484;2024-03-22T04:18:29;11.40;99.90
29777;DHT22;16677;52.224;7.484;2024-03-22T04:20:55;11.40;1.00
29777;DHT22;16677;52.224;7.484;2024-03-22T04:23:22;11.40;99.90
29777;DHT22;16677;52.224;7.484;2024-03-22T04:25:52;11.40;1.00
29777;DHT22;16677;52.224;7.484;2024-03-22T04:28:18;11.40;1.00
29777;DHT22;16677;52.224;7.484;2024-03-22T04:30:43;11.40;99.90
29777;DHT22;16677;52.224;7.484;2024-03-22T04:33:09;11.40;1.00
29777;DHT22;16677;52.224;7.484;2024-03-22T04:35:35;11.40;1.00
29777;DHT22;16677;52.224;7.484;2024-03-22T04:38:01;11.40;1.00
29777;DHT22;16677;52.224;7.484;2024-03-22T04:40:27;11.40;1.00
29777;DHT22;16677;52.224;7.484;2024-03-22T04:42:53;11.40;1.00
29777;DHT22;16677;52.224;7.484;2024-03-22T04:45:18;11.40;99.90
29777;DHT22;16677;52.224;7.484;2024-03-22T04:47:44;11.40;99.90
29777;DHT22;16677;52.224;7.484;2024-03-22T04:50:10;11.40;1.00
29777;DHT22;16677;52.224;7.484;2024-03-22T04:52:38;11.40;99.90
29777;DHT22;16677;52.224;7.484;2024-03-22T04:55:04;11.40;1.00
29777;DHT22;16677;52.224;7.484;2024-03-22T04:57:30;11.40;1.00
29777;DHT22;16677;52.224;7.484;2024-03-22T04:59:56;11.50;99.90
29777;DHT22;16677;52.224;7.484;2024-03-22T05:02:22;11.50;99.90
29777;DHT22;16677;52.224;7.484;2024-03-22T05:04:48;11.60;99.90
29777;DHT22;16677;52.224;7.484;2024-03-22T05:07:15;11.60;99.90
29777;DHT22;16677;52.224;7.484;2024-03-22T05:09:41;11.60;99.90
29777;DHT22;16677;52.224;7.484;2024-03-22T05:12:06;11.60;99.90
29777;DHT22;16677;52.224;7.484;2024-03-22T05:14:32;11.60;99.90
29777;DHT22;16677;52.224;7.484;2024-03-22T05:16:58;11.60;99.90
29777;DHT22;16677;52.224;7.484;2024-03-22T05:19:24;11.70;99.90
29777;DHT22;16677;52.224;7.484;2024-03-22T05:21:50;11.70;29.80
29777;DHT22;16677;52.224;7.484;2024-03-22T05:24:16;11.60;1.00
29777;DHT22;16677;52.224;7.484;2024-03-22T05:26:42;11.70;99.90
29777;DHT22;16677;52.224;7.484;2024-03-22T05:29:07;11.70;93.80
29777;DHT22;16677;52.224;7.484;2024-03-22T05:31:35;11.70;39.00
29777;DHT22;16677;52.224;7.484;2024-03-22T05:34:11;11.80;99.90
29777;DHT22;16677;52.224;7.484;2024-03-22T05:36:36;11.70;38.20
29777;DHT22;16677;52.224;7.484;2024-03-22T05:39:02;11.80;99.90
29777;DHT22;16677;52.224;7.484;2024-03-22T05:41:28;11.80;94.50
29777;DHT22;16677;52.224;7.484;2024-03-22T05:43:54;11.70;99.90
29777;DHT22;16677;52.224;7.484;2024-03-22T05:46:20;11.70;83.50
29777;DHT22;16677;52.224;7.484;2024-03-22T05:48:46;11.80;56.30
29777;DHT22;16677;52.224;7.484;2024-03-22T05:51:14;11.80;99.90
29777;DHT22;16677;52.224;7.484;2024-03-22T05:53:40;11.80;55.60
29777;DHT22;16677;52.224;7.484;2024-03-22T05:56:06;11.80;92.30
29777;DHT22;16677;52.224;7.484;2024-03-22T05:58:32;11.70;99.90
29777;DHT22;16677;52.224;7.484;2024-03-22T06:00:58;11.70;99.90
29777;DHT22;16677;52.224;7.484;2024-03-22T06:03:24;11.80;99.90
29777;DHT22;16677;52.224;7.484;2024-03-22T06:05:49;11.80;99.90
29777;DHT22;16677;52.224;7.484;2024-03-22T06:08:15;11.80;26.90
29777;DHT22;16677;52.224;7.484;2024-03-22T06:10:45;11.80;33.80
29777;DHT22;16677;52.224;7.484;2024-03-22T06:13:10;11.80;99.90
29777;DHT22;16677;52.224;7.484;2024-03-22T06:15:36;11.80;7.10
29777;DHT22;16677;52.224;7.484;2024-03-22T06:18:02;11.80;99.90
29777;DHT22;16677;52.224;7.484;2024-03-22T06:20:28;11.80;83.90
29777;DHT22;16677;52.224;7.484;2024-03-22T06:22:54;11.90;1.00
29777;DHT22;16677;52.224;7.484;2024-03-22T06:25:19;11.90;1.00
29777;DHT22;16677;52.224;7.484;2024-03-22T06:27:45;11.80;99.90
29777;DHT22;16677;52.224;7.484;2024-03-22T06:30:11;11.90;1.00
29777;DHT22;16677;52.224;7.484;2024-03-22T06:32:37;12.00;1.00
29777;DHT22;16677;52.224;7.484;2024-03-22T06:35:03;11.90;1.00
29777;DHT22;16677;52.224;7.484;2024-03-22T06:37:29;12.00;1.00
29777;DHT22;16677;52.224;7.484;2024-03-22T06:39:55;12.00;1.00
29777;DHT22;16677;52.224;7.484;2024-03-22T06:42:20;11.90;1.00
29777;DHT22;16677;52.224;7.484;2024-03-22T06:44:46;12.00;1.00
29777;DHT22;16677;52.224;7.484;2024-03-22T06:47:12;12.00;1.00
29777;DHT22;16677;52.224;7.484;2024-03-22T06:49:38;12.00;1.00
29777;DHT22;16677;52.224;7.484;2024-03-22T06:52:04;12.00;99.90
29777;DHT22;16677;52.224;7.484;2024-03-22T06:54:29;12.00;1.00
29777;DHT22;16677;52.224;7.484;2024-03-22T06:56:55;12.00;99.90
29777;DHT22;16677;52.224;7.484;2024-03-22T06:59:21;12.10;99.90
29777;DHT22;16677;52.224;7.484;2024-03-22T07:01:47;12.10;99.90
29777;DHT22;16677;52.224;7.484;2024-03-22T07:04:13;12.20;99.90
29777;DHT22;16677;52.224;7.484;2024-03-22T07:06:39;12.20;99.90
29777;DHT22;16677;52.224;7.484;2024-03-22T07:09:05;12.20;99.90
29777;DHT22;16677;52.224;7.484;2024-03-22T07:11:32;12.20;99.90
29777;DHT22;16677;52.224;7.484;2024-03-22T07:13:58;12.20;99.90
29777;DHT22;16677;52.224;7.484;2024-03-22T07:16:24;12.10;99.90
29777;DHT22;16677;52.224;7.484;2024-03-22T07:18:50;12.20;16.20
29777;DHT22;16677;52.224;7.484;2024-03-22T07:21:16;12.30;1.00
29777;DHT22;16677;52.224;7.484;2024-03-22T07:23:41;12.30;1.00
29777;DHT22;16677;52.224;7.484;2024-03-22T07:26:07;12.20;1.00
29777;DHT22;16677;52.224;7.484;2024-03-22T07:28:33;12.30;1.00
29777;DHT22;16677;52.224;7.484;2024-03-22T07:30:59;12.20;1.00
29777;DHT22;16677;52.224;7.484;2024-03-22T07:33:25;12.30;1.00
29777;DHT22;16677;52.224;7.484;2024-03-22T07:35:51;12.20;1.00
29777;DHT22;16677;52.224;7.484;2024-03-22T07:38:19;12.20;1.00
29777;DHT22;16677;52.224;7.484;2024-03-22T07:40:45;12.20;1.00
29777;DHT22;16677;52.224;7.484;2024-03-22T07:43:11;12.20;1.00
29777;DHT22;16677;52.224;7.484;2024-03-22T07:45:38;12.30;1.00
29777;DHT22;16677;52.224;7.484;2024-03-22T07:48:04;12.30;99.90
29777;DHT22;16677;52.224;7.484;2024-03-22T07:50:30;12.50;99.90
29777;DHT22;16677;52.224;7.484;2024-03-22T07:52:56;12.50;99.90
29777;DHT22;16677;52.224;7.484;2024-03-22T07:55:22;12.40;99.90
29777;DHT22;16677;52.224;7.484;2024-03-22T07:57:48;12.30;99.90
29777;DHT22;16677;52.224;7.484;2024-03-22T08:00:14;12.40;99.90
29777;DHT22;16677;52.224;7.484;2024-03-22T08:02:41;12.40;99.90
29777;DHT22;16677;52.224;7.484;2024-03-22T08:05:07;12.40;99.90
29777;DHT22;16677;52.224;7.484;2024-03-22T08:07:33;12.60;99.90
29777;DHT22;16677;52.224;7.484;2024-03-22T08:09:58;12.60;1.40
29777;DHT22;16677;52.224;7.484;2024-03-22T08:12:25;12.70;99.90
29777;DHT22;16677;52.224;7.484;2024-03-22T08:14:51;12.70;1.00
29777;DHT22;16677;52.224;7.484;2024-03-22T08:17:17;12.60;14.20
29777;DHT22;16677;52.224;7.484;2024-03-22T08:19:43;12.60;1.00
29777;DHT22;16677;52.224;7.484;2024-03-22T08:22:10;12.70;1.00
29777;DHT22;16677;52.224;7.484;2024-03-22T08:24:36;12.60;1.00
29777;DHT22;16677;52.224;7.484;2024-03-22T08:27:03;12.50;1.00
29777;DHT22;16677;52.224;7.484;2024-03-22T08:29:29;12.40;1.00
29777;DHT22;16677;52.224;7.484;2024-03-22T08:31:54;12.20;1.00
29777;DHT22;16677;52.224;7.484;2024-03-22T08:34:21;12.10;1.00
29777;DHT22;16677;52.224;7.484;2024-03-22T08:36:47;12.10;99.90
29777;DHT22;16677;52.224;7.484;2024-03-22T08:39:12;12.20;39.50
29777;DHT22;16677;52.224;7.484;2024-03-22T08:41:38;12.20;6.40
29777;DHT22;16677;52.224;7.484;2024-03-22T08:44:04;12.30;1.00
29777;DHT22;16677;52.224;7.484;2024-03-22T08:46:30;12.40;1.00
29777;DHT22;16677;52.224;7.484;2024-03-22T08:48:57;12.40;1.00
29777;DHT22;16677;52.224;7.484;2024-03-22T08:51:23;12.50;1.00
29777;DHT22;16677;52.224;7.484;2024-03-22T08:53:49;12.70;99.90
29777;DHT22;16677;52.224;7.484;2024-03-22T08:56:15;12.80;99.90
29777;DHT22;16677;52.224;7.484;2024-03-22T08:58:41;12.80;99.90
29777;DHT22;16677;52.224;7.484;2024-03-22T09:01:07;12.80;99.90
29777;DHT22;16677;52.224;7.484;2024-03-22T09:03:36;12.80;99.90
29777;DHT22;16677;52.224;7.484;2024-03-22T09:06:02;12.60;99.90
29777;DHT22;16677;52.224;7.484;2024-03-22T09:08:28;12.70;99.90
29777;DHT22;16677;52.224;7.484;2024-03-22T09:10:55;12.90;99.90
29777;DHT22;16677;52.224;7.484;2024-03-22T09:13:21;13.00;99.90
29777;DHT22;16677;52.224;7.484;2024-03-22T09:15:47;13.00;99.90
29777;DHT22;16677;52.224;7.484;2024-03-22T09:18:13;13.20;71.80
29777;DHT22;16677;52.224;7.484;2024-03-22T09:20:39;13.00;99.90
29777;DHT22;16677;52.224;7.484;2024-03-22T09:23:04;12.60;99.90
29777;DHT22;16677;52.224;7.484;2024-03-22T09:25:30;12.30;99.90
29777;DHT22;16677;52.224;7.484;2024-03-22T09:27:56;12.50;99.90
29777;DHT22;16677;52.224;7.484;2024-03-22T09:30:22;12.40;99.90
29777;DHT22;16677;52.224;7.484;2024-03-22T09:32:48;12.40;99.90
29777;DHT22;16677;52.224;7.484;2024-03-22T09:35:14;12.30;99.90
29777;DHT22;16677;52.224;7.484;2024-03-22T09:37:43;12.40;99.90
29777;DHT22;16677;52.224;7.484;2024-03-22T09:40:09;12.30;99.90
29777;DHT22;16677;52.224;7.484;2024-03-22T09:42:37;12.20;99.90
29777;DHT22;16677;52.224;7.484;2024-03-22T09:45:05;12.00;99.90
29777;DHT22;16677;52.224;7.484;2024-03-22T09:47:33;12.00;99.90
29777;DHT22;16677;52.224;7.484;2024-03-22T09:49:59;12.00;99.90
29777;DHT22;16677;52.224;7.484;2024-03-22T09:52:25;11.70;1.00
29777;DHT22;16677;52.224;7.484;2024-03-22T09:54:52;11.70;1.00
29777;DHT22;16677;52.224;7.484;2024-03-22T09:57:18;11.80;1.00
29777;DHT22;16677;52.224;7.484;2024-03-22T09:59:46;11.80;1.00
29777;DHT22;16677;52.224;7.484;2024-03-22T10:02:12;11.80;1.00
29777;DHT22;16677;52.224;7.484;2024-03-22T10:04:38;11.90;1.00
29777;DHT22;16677;52.224;7.484;2024-03-22T10:07:04;12.00;1.00
29777;DHT22;16677;52.224;7.484;2024-03-22T10:09:30;12.00;1.00
29777;DHT22;16677;52.224;7.484;2024-03-22T10:11:56;12.00;1.00
29777;DHT22;16677;52.224;7.484;2024-03-22T10:14:22;12.00;1.00
29777;DHT22;16677;52.224;7.484;2024-03-22T10:16:51;11.90;1.00
29777;DHT22;16677;52.224;7.484;2024-03-22T10:19:19;11.80;1.00
29777;DHT22;16677;52.224;7.484;2024-03-22T10:21:45;11.60;1.00
29777;DHT22;16677;52.224;7.484;2024-03-22T10:24:11;11.70;99.90
29777;DHT22;16677;52.224;7.484;2024-03-22T10:26:37;11.60;99.90
29777;DHT22;16677;52.224;7.484;2024-03-22T10:29:06;11.70;99.90
29777;DHT22;16677;52.224;7.484;2024-03-22T10:31:34;11.70;99.90
29777;DHT22;16677;52.224;7.484;2024-03-22T10:34:00;11.60;1.00
29777;DHT22;16677;52.224;7.484;2024-03-22T10:36:26;11.50;99.90
29777;DHT22;16677;52.224;7.484;2024-03-22T10:38:52;11.50;99.90
29777;DHT22;16677;52.224;7.484;2024-03-22T10:41:20;11.40;99.90
29777;DHT22;16677;52.224;7.484;2024-03-22T10:43:45;11.30;1.00
29777;DHT22;16677;52.224;7.484;2024-03-22T10:46:11;11.20;1.00
29777;DHT22;16677;52.224;7.484;2024-03-22T10:48:37;11.20;99.90
29777;DHT22;16677;52.224;7.484;2024-03-22T10:51:03;11.10;99.90
29777;DHT22;16677;52.224;7.484;2024-03-22T10:53:30;10.90;1.00
29777;DHT22;16677;52.224;7.484;2024-03-22T10:55:57;11.00;99.90
29777;DHT22;16677;52.224;7.484;2024-03-22T10:58:25;10.90;59.10
29777;DHT22;16677;52.224;7.484;2024-03-22T11:00:51;10.90;29.80
29777;DHT22;16677;52.224;7.484;2024-03-22T11:03:21;10.90;1.00
29777;DHT22;16677;52.224;7.484;2024-03-22T11:05:47;10.80;99.90
29777;DHT22;16677;52.224;7.484;2024-03-22T11:08:13;10.90;1.00
29777;DHT22;16677;52.224;7.484;2024-03-22T11:10:48;11.10;99.90
29777;DHT22;16677;52.224;7.484;2024-03-22T11:13:15;11.00;99.90
29777;DHT22;16677;52.224;7.484;2024-03-22T11:15:41;11.00;99.90
29777;DHT22;16677;52.224;7.484;2024-03-22T11:18:07;11.00;99.90
29777;DHT22;16677;52.224;7.484;2024-03-22T11:20:35;10.80;1.00
29777;DHT22;16677;52.224;7.484;2024-03-22T11:23:01;10.90;54.70
29777;DHT22;16677;52.224;7.484;2024-03-22T11:25:29;11.10;1.00
29777;DHT22;16677;52.224;7.484;2024-03-22T11:27:57;11.10;99.90
29777;DHT22;16677;52.224;7.484;2024-03-22T11:30:24;11.00;1.00
29777;DHT22;16677;52.224;7.484;2024-03-22T11:32:50;11.10;1.00
29777;DHT22;16677;52.224;7.484;2024-03-22T11:35:16;11.00;1.00
29777;DHT22;16677;52.224;7.484;2024-03-22T11:37:42;11.20;1.00
29777;DHT22;16677;52.224;7.484;2024-03-22T11:40:08;11.30;1.00
29777;DHT22;16677;52.224;7.484;2024-03-22T11:42:36;11.20;99.90
29777;DHT22;16677;52.224;7.484;2024-03-22T11:45:02;11.20;1.00
29777;DHT22;16677;52.224;7.484;2024-03-22T11:47:28;11.40;1.00
29777;DHT22;16677;52.224;7.484;2024-03-22T11:49:54;11.20;99.90
29777;DHT22;16677;52.224;7.484;2024-03-22T11:52:25;11.40;1.00
29777;DHT22;16677;52.224;7.484;2024-03-22T11:54:51;11.30;99.90
29777;DHT22;16677;52.224;7.484;2024-03-22T11:57:20;11.20;1.00
29777;DHT22;16677;52.224;7.484;2024-03-22T11:59:46;11.10;99.90
29777;DHT22;16677;52.224;7.484;2024-03-22T12:02:12;11.20;99.90
29777;DHT22;16677;52.224;7.484;2024-03-22T12:04:42;11.20;1.00
29777;DHT22;16677;52.224;7.484;2024-03-22T12:07:11;11.20;99.90
29777;DHT22;16677;52.224;7.484;2024-03-22T12:09:37;11.10;99.90
29777;DHT22;16677;52.224;7.484;2024-03-22T12:12:03;11.00;99.90
29777;DHT22;16677;52.224;7.484;2024-03-22T12:14:29;11.10;99.90
29777;DHT22;16677;52.224;7.484;2024-03-22T12:16:55;10.90;99.90
29777;DHT22;16677;52.224;7.484;2024-03-22T12:19:21;10.90;1.00
29777;DHT22;16677;52.224;7.484;2024-03-22T12:21:47;10.90;1.00
29777;DHT22;16677;52.224;7.484;2024-03-22T12:24:13;10.90;75.90
29777;DHT22;16677;52.224;7.484;2024-03-22T12:26:39;11.00;52.70
29777;DHT22;16677;52.224;7.484;2024-03-22T12:29:04;11.00;1.00
29777;DHT22;16677;52.224;7.484;2024-03-22T12:31:30;11.00;99.90
29777;DHT22;16677;52.224;7.484;2024-03-22T12:33:56;11.10;96.70
29777;DHT22;16677;52.224;7.484;2024-03-22T12:36:22;11.10;1.00
29777;DHT22;16677;52.224;7.484;2024-03-22T12:38:48;11.10;99.90
29777;DHT22;16677;52.224;7.484;2024-03-22T12:41:14;11.10;99.90
29777;DHT22;16677;52.224;7.484;2024-03-22T12:43:40;11.00;1.00
29777;DHT22;16677;52.224;7.484;2024-03-22T12:46:08;11.20;99.90
29777;DHT22;16677;52.224;7.484;2024-03-22T12:48:34;11.10;99.90
29777;DHT22;16677;52.224;7.484;2024-03-22T12:50:59;11.10;99.90
29777;DHT22;16677;52.224;7.484;2024-03-22T12:53:25;10.90;99.90
29777;DHT22;16677;52.224;7.484;2024-03-22T12:55:51;11.00;1.00
29777;DHT22;16677;52.224;7.484;2024-03-22T12:58:17;10.90;99.90
29777;DHT22;16677;52.224;7.484;2024-03-22T13:00:43;10.80;1.00
29777;DHT22;16677;52.224;7.484;2024-03-22T13:03:09;10.80;1.00
29777;DHT22;16677;52.224;7.484;2024-03-22T13:05:37;10.90;1.00
29777;DHT22;16677;52.224;7.484;2024-03-22T13:08:03;10.70;1.00
29777;DHT22;16677;52.224;7.484;2024-03-22T13:10:29;10.80;1.00
29777;DHT22;16677;52.224;7.484;2024-03-22T13:12:55;10.80;1.00
29777;DHT22;16677;52.224;7.484;2024-03-22T13:15:20;10.80;99.90
29777;DHT22;16677;52.224;7.484;2024-03-22T13:17:46;10.80;99.90
29777;DHT22;16677;52.224;7.484;2024-03-22T13:20:12;10.90;1.00
29777;DHT22;16677;52.224;7.484;2024-03-22T13:22:40;10.90;26.20
29777;DHT22;16677;52.224;7.484;2024-03-22T13:25:06;11.00;99.90
29777;DHT22;16677;52.224;7.484;2024-03-22T13:27:34;11.00;1.00
29777;DHT22;16677;52.224;7.484;2024-03-22T13:30:00;11.00;1.00
29777;DHT22;16677;52.224;7.484;2024-03-22T13:32:26;10.80;1.00
29777;DHT22;16677;52.224;7.484;2024-03-22T13:34:52;11.10;99.90
29777;DHT22;16677;52.224;7.484;2024-03-22T13:37:18;11.00;99.90
29777;DHT22;16677;52.224;7.484;2024-03-22T13:39:48;11.10;1.00
29777;DHT22;16677;52.224;7.484;2024-03-22T13:42:14;11.00;99.90
29777;DHT22;16677;52.224;7.484;2024-03-22T13:44:41;11.00;1.00
29777;DHT22;16677;52.224;7.484;2024-03-22T13:47:07;10.90;83.80
29777;DHT22;16677;52.224;7.484;2024-03-22T13:49:32;11.00;1.00
29777;DHT22;16677;52.224;7.484;2024-03-22T13:51:58;10.90;99.90
29777;DHT22;16677;52.224;7.484;2024-03-22T13:54:24;11.10;1.00
29777;DHT22;16677;52.224;7.484;2024-03-22T13:56:50;11.20;1.00
29777;DHT22;16677;52.224;7.484;2024-03-22T13:59:16;11.20;1.00
29777;DHT22;16677;52.224;7.484;2024-03-22T14:01:42;11.10;99.90
29777;DHT22;16677;52.224;7.484;2024-03-22T14:04:11;10.90;1.00
29777;DHT22;16677;52.224;7.484;2024-03-22T14:06:37;11.00;1.00
29777;DHT22;16677;52.224;7.484;2024-03-22T14:09:03;11.00;1.00
29777;DHT22;16677;52.224;7.484;2024-03-22T14:11:30;11.00;1.00
29777;DHT22;16677;52.224;7.484;2024-03-22T14:13:57;11.10;1.00
29777;DHT22;16677;52.224;7.484;2024-03-22T14:16:23;11.10;99.90
29777;DHT22;16677;52.224;7.484;2024-03-22T14:18:49;11.00;50.10
29777;DHT22;16677;52.224;7.484;2024-03-22T14:21:15;11.10;99.90
29777;DHT22;16677;52.224;7.484;2024-03-22T14:23:48;11.00;99.90
29777;DHT22;16677;52.224;7.484;2024-03-22T14:26:14;11.00;1.00
29777;DHT22;16677;52.224;7.484;2024-03-22T14:28:40;11.00;99.90
29777;DHT22;16677;52.224;7.484;2024-03-22T14:31:12;11.10;1.00
29777;DHT22;16677;52.224;7.484;2024-03-22T14:33:38;11.10;99.90
29777;DHT22;16677;52.224;7.484;2024-03-22T14:36:05;10.90;1.00
29777;DHT22;16677;52.224;7.484;2024-03-22T14:38:32;10.90;1.00
29777;DHT22;16677;52.224;7.484;2024-03-22T14:40:58;11.00;99.90
29777;DHT22;16677;52.224;7.484;2024-03-22T14:43:24;11.00;1.00
29777;DHT22;16677;52.224;7.484;2024-03-22T14:45:51;10.80;1.00
29777;DHT22;16677;52.224;7.484;2024-03-22T14:48:21;10.80;99.90
29777;DHT22;16677;52.224;7.484;2024-03-22T14:50:47;11.00;1.00
29777;DHT22;16677;52.224;7.484;2024-03-22T14:53:14;11.10;1.00
29777;DHT22;16677;52.224;7.484;2024-03-22T14:55:58;11.10;99.90
29777;DHT22;16677;52.224;7.484;2024-03-22T14:58:25;11.20;99.90
29777;DHT22;16677;52.224;7.484;2024-03-22T15:00:55;11.00;45.70
29777;DHT22;16677;52.224;7.484;2024-03-22T15:03:21;11.00;99.90
29777;DHT22;16677;52.224;7.484;2024-03-22T15:05:51;10.90;99.90
29777;DHT22;16677;52.224;7.484;2024-03-22T15:08:18;11.10;1.00
29777;DHT22;16677;52.224;7.484;2024-03-22T15:10:44;11.20;1.00
29777;DHT22;16677;52.224;7.484;2024-03-22T15:13:09;11.30;1.00
29777;DHT22;16677;52.224;7.484;2024-03-22T15:15:36;11.10;1.00
29777;DHT22;16677;52.224;7.484;2024-03-22T15:18:02;11.20;99.90
29777;DHT22;16677;52.224;7.484;2024-03-22T15:20:28;11.30;99.90
29777;DHT22;16677;52.224;7.484;2024-03-22T15:22:54;11.30;1.00
29777;DHT22;16677;52.224;7.484;2024-03-22T15:25:20;11.30;99.90
29777;DHT22;16677;52.224;7.484;2024-03-22T15:27:46;11.20;99.90
29777;DHT22;16677;52.224;7.484;2024-03-22T15:30:13;11.40;1.00